sensor_id;sensor_type;location;lat;lon;timestamp;temperature;humidity
83841;DHT22;73868;52.172;10.668;2024-02-28T00:01:51;4.50;84.60
83841;DHT22;73868;52.172;10.668;2024-02-28T00:04:17;4.50;83.60
83841;DHT22;73868;52.172;10.668;2024-02-28T00:06:43;4.50;83.80
83841;DHT22;73868;52.172;10.668;2024-02-28T00:09:10;4.50;82.80
83841;DHT22;73868;52.172;10.668;2024-02-28T00:11:40;4.60;83.10
83841;DHT22;73868;52.172;10.668;2024-02-28T00:14:06;4.60;83.40
83841;DHT22;73868;52.172;10.668;2024-02-28T00:16:31;4.50;84.10
83841;DHT22;73868;52.172;10.668;2024-02-28T00:18:57;4.50;84.10
83841;DHT22;73868;52.172;10.668;2024-02-28T00:21:22;4.50;84.10
83841;DHT22;73868;52.172;10.668;2024-02-28T00:23:48;4.50;84.60
83841;DHT22;73868;52.172;10.668;2024-02-28T00:26:13;4.50;85.00
83841;DHT22;73868;52.172;10.668;2024-02-28T00:28:39;4.60;85.00
83841;DHT22;73868;52.172;10.668;2024-02-28T00:31:04;4.60;85.50
83841;DHT22;73868;52.172;10.668;2024-02-28T00:33:30;4.50;85.20
83841;DHT22;73868;52.172;10.668;2024-02-28T00:35:55;4.30;85.50
83841;DHT22;73868;52.172;10.668;2024-02-28T00:38:21;4.30;85.50
83841;DHT22;73868;52.172;10.668;2024-02-28T00:40:47;4.40;85.60
83841;DHT22;73868;52.172;10.668;2024-02-28T00:43:13;4.40;85.40
83841;DHT22;73868;52.172;10.668;2024-02-28T00:45:38;4.50;84.70
83841;DHT22;73868;52.172;10.668;2024-02-28T00:48:04;4.60;83.80
83841;DHT22;73868;52.172;10.668;2024-02-28T00:50:30;4.70;83.90
83841;DHT22;73868;52.172;10.668;2024-02-28T00:52:55;4.50;83.90
83841;DHT22;73868;52.172;10.668;2024-02-28T00:55:21;4.70;83.30
83841;DHT22;73868;52.172;10.668;2024-02-28T00:57:46;4.60;82.30
83841;DHT22;73868;52.172;10.668;2024-02-28T01:00:12;4.60;82.90
83841;DHT22;73868;52.172;10.668;2024-02-28T01:02:40;4.50;84.40
83841;DHT22;73868;52.172;10.668;2024-02-28T01:05:07;4.70;83.10
83841;DHT22;73868;52.172;10.668;2024-02-28T01:07:32;4.60;83.10
83841;DHT22;73868;52.172;10.668;2024-02-28T01:09:58;4.60;83.50
83841;DHT22;73868;52.172;10.668;2024-02-28T01:12:24;4.50;83.90
83841;DHT22;73868;52.172;10.668;2024-02-28T01:14:49;4.50;84.20
83841;DHT22;73868;52.172;10.668;2024-02-28T01:17:15;4.50;83.40
83841;DHT22;73868;52.172;10.668;2024-02-28T01:19:40;4.60;83.60
83841;DHT22;73868;52.172;10.668;2024-02-28T01:22:06;4.60;83.80
83841;DHT22;73868;52.172;10.668;2024-02-28T01:24:32;4.60;83.40
83841;DHT22;73868;52.172;10.668;2024-02-28T01:26:58;4.50;83.30
83841;DHT22;73868;52.172;10.668;2024-02-28T01:29:24;4.50;83.40
83841;DHT22;73868;52.172;10.668;2024-02-28T01:31:50;4.50;83.80
83841;DHT22;73868;52.172;10.668;2024-02-28T01:34:15;4.60;84.00
83841;DHT22;73868;52.172;10.668;2024-02-28T01:36:41;4.40;82.10
83841;DHT22;73868;52.172;10.668;2024-02-28T01:39:06;4.30;82.60
83841;DHT22;73868;52.172;10.668;2024-02-28T01:41:32;4.30;82.40
83841;DHT22;73868;52.172;10.668;2024-02-28T01:43:57;4.30;82.40
83841;DHT22;73868;52.172;10.668;2024-02-28T01:46:27;4.30;83.70
83841;DHT22;73868;52.172;10.668;2024-02-28T01:48:54;4.40;83.80
83841;DHT22;73868;52.172;10.668;2024-02-28T01:51:24;4.30;83.80
83841;DHT22;73868;52.172;10.668;2024-02-28T01:53:51;4.30;83.80
83841;DHT22;73868;52.172;10.668;2024-02-28T01:56:18;4.30;83.90
83841;DHT22;73868;52.172;10.668;2024-02-28T01:58:48;4.30;84.20
83841;DHT22;73868;52.172;10.668;2024-02-28T02:01:15;4.30;84.70
83841;DHT22;73868;52.172;10.668;2024-02-28T02:03:42;4.30;84.60
83841;DHT22;73868;52.172;10.668;2024-02-28T02:06:08;4.30;84.80
83841;DHT22;73868;52.172;10.668;2024-02-28T02:08:34;4.20;84.70
83841;DHT22;73868;52.172;10.668;2024-02-28T02:11:00;4.20;84.60
83841;DHT22;73868;52.172;10.668;2024-02-28T02:13:25;4.20;84.60
83841;DHT22;73868;52.172;10.668;2024-02-28T02:15:51;4.00;85.20
83841;DHT22;73868;52.172;10.668;2024-02-28T02:18:16;3.90;85.50
83841;DHT22;73868;52.172;10.668;2024-02-28T02:20:44;3.90;86.00
83841;DHT22;73868;52.172;10.668;2024-02-28T02:23:11;3.80;85.90
83841;DHT22;73868;52.172;10.668;2024-02-28T02:25:48;3.80;85.60
83841;DHT22;73868;52.172;10.668;2024-02-28T02:28:14;3.80;85.20
83841;DHT22;73868;52.172;10.668;2024-02-28T02:30:41;3.70;85.30
83841;DHT22;73868;52.172;10.668;2024-02-28T02:33:10;3.60;85.60
83841;DHT22;73868;52.172;10.668;2024-02-28T02:35:36;3.70;85.60
83841;DHT22;73868;52.172;10.668;2024-02-28T02:38:02;3.70;86.20
83841;DHT22;73868;52.172;10.668;2024-02-28T02:40:27;3.70;86.20
83841;DHT22;73868;52.172;10.668;2024-02-28T02:42:57;3.70;86.50
83841;DHT22;73868;52.172;10.668;2024-02-28T02:45:23;3.60;86.50
83841;DHT22;73868;52.172;10.668;2024-02-28T02:47:49;3.60;86.40
83841;DHT22;73868;52.172;10.668;2024-02-28T02:50:14;3.70;86.80
83841;DHT22;73868;52.172;10.668;2024-02-28T02:52:40;3.50;86.70
83841;DHT22;73868;52.172;10.668;2024-02-28T02:55:06;3.50;86.80
83841;DHT22;73868;52.172;10.668;2024-02-28T02:57:32;3.40;86.40
83841;DHT22;73868;52.172;10.668;2024-02-28T02:59:58;3.40;86.40
83841;DHT22;73868;52.172;10.668;2024-02-28T03:02:23;3.30;86.80
83841;DHT22;73868;52.172;10.668;2024-02-28T03:04:49;3.30;86.90
83841;DHT22;73868;52.172;10.668;2024-02-28T03:07:15;3.10;87.00
83841;DHT22;73868;52.172;10.668;2024-02-28T03:09:40;3.00;87.60
83841;DHT22;73868;52.172;10.668;2024-02-28T03:12:06;3.10;87.80
83841;DHT22;73868;52.172;10.668;2024-02-28T03:14:32;3.10;88.50
83841;DHT22;73868;52.172;10.668;2024-02-28T03:16:57;2.80;88.40
83841;DHT22;73868;52.172;10.668;2024-02-28T03:19:23;2.80;88.90
83841;DHT22;73868;52.172;10.668;2024-02-28T03:21:48;2.90;89.10
83841;DHT22;73868;52.172;10.668;2024-02-28T03:24:14;3.00;90.50
83841;DHT22;73868;52.172;10.668;2024-02-28T03:26:39;3.10;90.30
83841;DHT22;73868;52.172;10.668;2024-02-28T03:29:05;3.00;89.80
83841;DHT22;73868;52.172;10.668;2024-02-28T03:31:30;3.00;89.30
83841;DHT22;73868;52.172;10.668;2024-02-28T03:33:56;2.90;89.50
83841;DHT22;73868;52.172;10.668;2024-02-28T03:36:22;2.90;89.20
83841;DHT22;73868;52.172;10.668;2024-02-28T03:38:47;2.80;89.30
83841;DHT22;73868;52.172;10.668;2024-02-28T03:41:13;2.90;90.50
83841;DHT22;73868;52.172;10.668;2024-02-28T03:43:38;3.00;90.00
83841;DHT22;73868;52.172;10.668;2024-02-28T03:46:04;3.00;89.80
83841;DHT22;73868;52.172;10.668;2024-02-28T03:48:29;3.00;89.10
83841;DHT22;73868;52.172;10.668;2024-02-28T03:50:55;3.00;89.30
83841;DHT22;73868;52.172;10.668;2024-02-28T03:53:20;3.00;89.10
83841;DHT22;73868;52.172;10.668;2024-02-28T03:55:46;3.00;88.60
83841;DHT22;73868;52.172;10.668;2024-02-28T03:58:11;3.00;88.70
83841;DHT22;73868;52.172;10.668;2024-02-28T04:00:37;2.90;88.70
83841;DHT22;73868;52.172;10.668;2024-02-28T04:03:04;3.00;88.80
83841;DHT22;73868;52.172;10.668;2024-02-28T04:05:29;3.00;88.30
83841;DHT22;73868;52.172;10.668;2024-02-28T04:07:55;3.00;87.60
83841;DHT22;73868;52.172;10.668;2024-02-28T04:10:21;2.90;87.70
83841;DHT22;73868;52.172;10.668;2024-02-28T04:12:47;2.90;87.80
83841;DHT22;73868;52.172;10.668;2024-02-28T04:15:13;3.00;88.30
83841;DHT22;73868;52.172;10.668;2024-02-28T04:17:39;3.00;88.20
83841;DHT22;73868;52.172;10.668;2024-02-28T04:20:09;2.90;88.40
83841;DHT22;73868;52.172;10.668;2024-02-28T04:22:34;2.80;88.40
83841;DHT22;73868;52.172;10.668;2024-02-28T04:25:00;2.70;88.50
83841;DHT22;73868;52.172;10.668;2024-02-28T04:27:25;2.70;88.90
83841;DHT22;73868;52.172;10.668;2024-02-28T04:29:51;2.70;89.10
83841;DHT22;73868;52.172;10.668;2024-02-28T04:32:16;2.70;89.30
83841;DHT22;73868;52.172;10.668;2024-02-28T04:34:42;2.70;88.80
83841;DHT22;73868;52.172;10.668;2024-02-28T04:37:08;2.80;89.00
83841;DHT22;73868;52.172;10.668;2024-02-28T04:39:33;2.70;88.90
83841;DHT22;73868;52.172;10.668;2024-02-28T04:41:59;2.70;88.90
83841;DHT22;73868;52.172;10.668;2024-02-28T04:44:24;2.80;88.90
83841;DHT22;73868;52.172;10.668;2024-02-28T04:46:50;2.90;88.50
83841;DHT22;73868;52.172;10.668;2024-02-28T04:49:16;3.00;88.70
83841;DHT22;73868;52.172;10.668;2024-02-28T04:51:41;3.10;88.30
83841;DHT22;73868;52.172;10.668;2024-02-28T04:54:07;3.20;88.00
83841;DHT22;73868;52.172;10.668;2024-02-28T04:56:32;3.10;87.90
83841;DHT22;73868;52.172;10.668;2024-02-28T04:58:58;3.00;87.90
83841;DHT22;73868;52.172;10.668;2024-02-28T05:01:23;3.20;88.20
83841;DHT22;73868;52.172;10.668;2024-02-28T05:03:49;3.30;88.00
83841;DHT22;73868;52.172;10.668;2024-02-28T05:06:14;3.30;87.60
83841;DHT22;73868;52.172;10.668;2024-02-28T05:08:40;3.20;87.20
83841;DHT22;73868;52.172;10.668;2024-02-28T05:11:05;3.30;87.80
83841;DHT22;73868;52.172;10.668;2024-02-28T05:13:31;3.30;86.60
83841;DHT22;73868;52.172;10.668;2024-02-28T05:15:56;3.30;86.70
83841;DHT22;73868;52.172;10.668;2024-02-28T05:18:22;3.50;86.00
83841;DHT22;73868;52.172;10.668;2024-02-28T05:20:48;3.40;86.20
83841;DHT22;73868;52.172;10.668;2024-02-28T05:23:13;3.40;86.60
83841;DHT22;73868;52.172;10.668;2024-02-28T05:25:40;3.50;85.90
83841;DHT22;73868;52.172;10.668;2024-02-28T05:28:06;3.50;86.10
83841;DHT22;73868;52.172;10.668;2024-02-28T05:30:31;3.40;86.00
83841;DHT22;73868;52.172;10.668;2024-02-28T05:32:57;3.30;86.70
83841;DHT22;73868;52.172;10.668;2024-02-28T05:35:22;3.40;86.40
83841;DHT22;73868;52.172;10.668;2024-02-28T05:37:48;3.40;86.70
83841;DHT22;73868;52.172;10.668;2024-02-28T05:40:18;3.40;86.30
83841;DHT22;73868;52.172;10.668;2024-02-28T05:42:43;3.30;85.40
83841;DHT22;73868;52.172;10.668;2024-02-28T05:45:09;3.30;85.30
83841;DHT22;73868;52.172;10.668;2024-02-28T05:47:35;3.30;86.10
83841;DHT22;73868;52.172;10.668;2024-02-28T05:50:01;3.30;86.40
83841;DHT22;73868;52.172;10.668;2024-02-28T05:52:26;3.30;86.60
83841;DHT22;73868;52.172;10.668;2024-02-28T05:54:52;3.20;86.60
83841;DHT22;73868;52.172;10.668;2024-02-28T05:57:18;3.20;87.00
83841;DHT22;73868;52.172;10.668;2024-02-28T05:59:43;3.20;87.40
83841;DHT22;73868;52.172;10.668;2024-02-28T06:02:09;3.30;86.80
83841;DHT22;73868;52.172;10.668;2024-02-28T06:04:35;3.30;87.30
83841;DHT22;73868;52.172;10.668;2024-02-28T06:07:00;3.40;86.50
83841;DHT22;73868;52.172;10.668;2024-02-28T06:09:26;3.40;86.40
83841;DHT22;73868;52.172;10.668;2024-02-28T06:11:54;3.30;86.60
83841;DHT22;73868;52.172;10.668;2024-02-28T06:14:20;3.20;86.60
83841;DHT22;73868;52.172;10.668;2024-02-28T06:16:48;3.10;86.80
83841;DHT22;73868;52.172;10.668;2024-02-28T06:19:14;3.20;87.00
83841;DHT22;73868;52.172;10.668;2024-02-28T06:21:40;3.10;87.20
83841;DHT22;73868;52.172;10.668;2024-02-28T06:24:05;3.20;87.50
83841;DHT22;73868;52.172;10.668;2024-02-28T06:26:31;3.30;87.10
83841;DHT22;73868;52.172;10.668;2024-02-28T06:28:59;3.20;86.60
83841;DHT22;73868;52.172;10.668;2024-02-28T06:31:27;3.00;86.90
83841;DHT22;73868;52.172;10.668;2024-02-28T06:33:57;3.10;86.90
83841;DHT22;73868;52.172;10.668;2024-02-28T06:36:22;3.00;86.90
83841;DHT22;73868;52.172;10.668;2024-02-28T06:38:48;3.00;87.10
83841;DHT22;73868;52.172;10.668;2024-02-28T06:41:13;2.90;87.50
83841;DHT22;73868;52.172;10.668;2024-02-28T06:43:39;2.90;88.10
83841;DHT22;73868;52.172;10.668;2024-02-28T06:46:04;2.90;87.90
83841;DHT22;73868;52.172;10.668;2024-02-28T06:48:30;3.00;87.80
83841;DHT22;73868;52.172;10.668;2024-02-28T06:50:56;3.10;87.60
83841;DHT22;73868;52.172;10.668;2024-02-28T06:53:23;3.10;87.30
83841;DHT22;73868;52.172;10.668;2024-02-28T06:55:48;3.10;87.40
83841;DHT22;73868;52.172;10.668;2024-02-28T06:58:14;3.10;86.90
83841;DHT22;73868;52.172;10.668;2024-02-28T07:00:40;3.00;87.30
83841;DHT22;73868;52.172;10.668;2024-02-28T07:03:06;3.00;87.80
83841;DHT22;73868;52.172;10.668;2024-02-28T07:05:32;3.10;87.90
83841;DHT22;73868;52.172;10.668;2024-02-28T07:07:59;3.20;87.70
83841;DHT22;73868;52.172;10.668;2024-02-28T07:10:25;3.00;87.80
83841;DHT22;73868;52.172;10.668;2024-02-28T07:12:50;3.10;86.80
83841;DHT22;73868;52.172;10.668;2024-02-28T07:15:16;3.20;86.80
83841;DHT22;73868;52.172;10.668;2024-02-28T07:17:45;3.20;87.20
83841;DHT22;73868;52.172;10.668;2024-02-28T07:20:10;3.30;87.10
83841;DHT22;73868;52.172;10.668;2024-02-28T07:22:37;3.40;87.60
83841;DHT22;73868;52.172;10.668;2024-02-28T07:25:02;3.40;86.90
83841;DHT22;73868;52.172;10.668;2024-02-28T07:27:29;3.50;85.90
83841;DHT22;73868;52.172;10.668;2024-02-28T07:29:55;3.50;85.90
83841;DHT22;73868;52.172;10.668;2024-02-28T07:32:20;3.60;85.80
83841;DHT22;73868;52.172;10.668;2024-02-28T07:34:46;3.40;86.40
83841;DHT22;73868;52.172;10.668;2024-02-28T07:37:11;3.50;86.50
83841;DHT22;73868;52.172;10.668;2024-02-28T07:39:37;3.60;87.00
83841;DHT22;73868;52.172;10.668;2024-02-28T07:42:03;3.80;86.00
83841;DHT22;73868;52.172;10.668;2024-02-28T07:44:29;3.70;86.30
83841;DHT22;73868;52.172;10.668;2024-02-28T07:46:59;3.90;85.50
83841;DHT22;73868;52.172;10.668;2024-02-28T07:49:25;4.00;85.50
83841;DHT22;73868;52.172;10.668;2024-02-28T07:51:51;4.00;85.30
83841;DHT22;73868;52.172;10.668;2024-02-28T07:54:17;4.00;85.70
83841;DHT22;73868;52.172;10.668;2024-02-28T07:56:44;4.10;85.20
83841;DHT22;73868;52.172;10.668;2024-02-28T07:59:09;4.20;85.10
83841;DHT22;73868;52.172;10.668;2024-02-28T08:01:35;4.00;85.10
83841;DHT22;73868;52.172;10.668;2024-02-28T08:04:01;4.00;85.30
83841;DHT22;73868;52.172;10.668;2024-02-28T08:06:27;4.00;86.40
83841;DHT22;73868;52.172;10.668;2024-02-28T08:08:53;4.00;86.40
83841;DHT22;73868;52.172;10.668;2024-02-28T08:11:18;4.10;85.80
83841;DHT22;73868;52.172;10.668;2024-02-28T08:13:44;4.30;85.70
83841;DHT22;73868;52.172;10.668;2024-02-28T08:16:10;4.20;84.60
83841;DHT22;73868;52.172;10.668;2024-02-28T08:18:36;4.40;85.00
83841;DHT22;73868;52.172;10.668;2024-02-28T08:21:01;4.40;84.20
83841;DHT22;73868;52.172;10.668;2024-02-28T08:23:31;4.50;83.80
83841;DHT22;73868;52.172;10.668;2024-02-28T08:25:56;4.30;84.20
83841;DHT22;73868;52.172;10.668;2024-02-28T08:28:22;4.40;83.70
83841;DHT22;73868;52.172;10.668;2024-02-28T08:30:48;4.40;83.80
83841;DHT22;73868;52.172;10.668;2024-02-28T08:33:14;4.30;84.40
83841;DHT22;73868;52.172;10.668;2024-02-28T08:35:40;4.40;84.30
83841;DHT22;73868;52.172;10.668;2024-02-28T08:38:06;4.20;84.10
83841;DHT22;73868;52.172;10.668;2024-02-28T08:40:31;4.40;85.40
83841;DHT22;73868;52.172;10.668;2024-02-28T08:42:57;4.50;84.30
83841;DHT22;73868;52.172;10.668;2024-02-28T08:45:23;4.40;84.90
83841;DHT22;73868;52.172;10.668;2024-02-28T08:47:48;4.70;84.20
83841;DHT22;73868;52.172;10.668;2024-02-28T08:50:14;4.60;84.40
83841;DHT22;73868;52.172;10.668;2024-02-28T08:52:40;4.80;84.60
83841;DHT22;73868;52.172;10.668;2024-02-28T08:55:05;4.90;83.50
83841;DHT22;73868;52.172;10.668;2024-02-28T08:57:31;4.90;83.80
83841;DHT22;73868;52.172;10.668;2024-02-28T08:59:57;5.10;83.10
83841;DHT22;73868;52.172;10.668;2024-02-28T09:02:23;5.10;83.00
83841;DHT22;73868;52.172;10.668;2024-02-28T09:04:48;5.30;82.50
83841;DHT22;73868;52.172;10.668;2024-02-28T09:07:20;5.40;81.80
83841;DHT22;73868;52.172;10.668;2024-02-28T09:09:45;5.40;82.10
83841;DHT22;73868;52.172;10.668;2024-02-28T09:12:11;5.30;81.20
83841;DHT22;73868;52.172;10.668;2024-02-28T09:14:37;5.30;81.50
83841;DHT22;73868;52.172;10.668;2024-02-28T09:17:04;5.40;81.60
83841;DHT22;73868;52.172;10.668;2024-02-28T09:19:30;5.40;81.00
83841;DHT22;73868;52.172;10.668;2024-02-28T09:21:56;5.50;80.80
83841;DHT22;73868;52.172;10.668;2024-02-28T09:24:21;5.60;80.60
83841;DHT22;73868;52.172;10.668;2024-02-28T09:26:47;5.60;79.80
83841;DHT22;73868;52.172;10.668;2024-02-28T09:29:12;5.60;80.20
83841;DHT22;73868;52.172;10.668;2024-02-28T09:31:38;5.70;80.60
83841;DHT22;73868;52.172;10.668;2024-02-28T09:34:03;5.80;80.10
83841;DHT22;73868;52.172;10.668;2024-02-28T09:36:33;5.90;78.90
83841;DHT22;73868;52.172;10.668;2024-02-28T09:39:05;6.00;79.00
83841;DHT22;73868;52.172;10.668;2024-02-28T09:41:30;6.10;79.60
83841;DHT22;73868;52.172;10.668;2024-02-28T09:43:56;6.20;78.10
83841;DHT22;73868;52.172;10.668;2024-02-28T09:46:22;6.20;78.20
83841;DHT22;73868;52.172;10.668;2024-02-28T09:48:49;6.30;78.40
83841;DHT22;73868;52.172;10.668;2024-02-28T09:51:18;6.10;78.10
83841;DHT22;73868;52.172;10.668;2024-02-28T09:53:45;6.00;78.00
83841;DHT22;73868;52.172;10.668;2024-02-28T09:56:11;6.10;78.20
83841;DHT22;73868;52.172;10.668;2024-02-28T09:58:38;6.30;78.60
83841;DHT22;73868;52.172;10.668;2024-02-28T10:01:04;6.50;78.20
83841;DHT22;73868;52.172;10.668;2024-02-28T10:03:35;6.60;77.10
83841;DHT22;73868;52.172;10.668;2024-02-28T10:06:02;6.80;76.40
83841;DHT22;73868;52.172;10.668;2024-02-28T10:08:27;6.70;76.10
83841;DHT22;73868;52.172;10.668;2024-02-28T10:10:54;6.50;76.20
83841;DHT22;73868;52.172;10.668;2024-02-28T10:13:21;6.40;76.70
83841;DHT22;73868;52.172;10.668;2024-02-28T10:15:50;6.40;77.60
83841;DHT22;73868;52.172;10.668;2024-02-28T10:18:16;6.50;76.90
83841;DHT22;73868;52.172;10.668;2024-02-28T10:20:42;6.50;77.20
83841;DHT22;73868;52.172;10.668;2024-02-28T10:23:07;6.80;77.20
83841;DHT22;73868;52.172;10.668;2024-02-28T10:25:45;6.80;77.30
83841;DHT22;73868;52.172;10.668;2024-02-28T10:28:12;6.90;76.70
83841;DHT22;73868;52.172;10.668;2024-02-28T10:30:43;7.10;75.20
83841;DHT22;73868;52.172;10.668;2024-02-28T10:33:15;7.10;75.70
83841;DHT22;73868;52.172;10.668;2024-02-28T10:35:42;7.10;75.20
83841;DHT22;73868;52.172;10.668;2024-02-28T10:38:12;7.20;75.80
83841;DHT22;73868;52.172;10.668;2024-02-28T10:40:41;7.20;76.20
83841;DHT22;73868;52.172;10.668;2024-02-28T10:43:10;7.10;76.20
83841;DHT22;73868;52.172;10.668;2024-02-28T10:45:37;7.20;76.20
83841;DHT22;73868;52.172;10.668;2024-02-28T10:48:04;7.10;75.90
83841;DHT22;73868;52.172;10.668;2024-02-28T10:50:30;7.20;76.00
83841;DHT22;73868;52.172;10.668;2024-02-28T10:53:02;7.20;76.70
83841;DHT22;73868;52.172;10.668;2024-02-28T10:55:33;7.10;76.70
83841;DHT22;73868;52.172;10.668;2024-02-28T10:58:06;7.00;77.20
83841;DHT22;73868;52.172;10.668;2024-02-28T11:00:37;6.90;77.10
83841;DHT22;73868;52.172;10.668;2024-02-28T11:03:16;6.90;78.30
83841;DHT22;73868;52.172;10.668;2024-02-28T11:05:43;6.90;78.00
83841;DHT22;73868;52.172;10.668;2024-02-28T11:08:24;6.90;77.90
83841;DHT22;73868;52.172;10.668;2024-02-28T11:10:57;6.90;78.20
83841;DHT22;73868;52.172;10.668;2024-02-28T11:13:28;6.90;78.00
83841;DHT22;73868;52.172;10.668;2024-02-28T11:15:54;7.10;78.30
83841;DHT22;73868;52.172;10.668;2024-02-28T11:18:23;7.10;78.10
83841;DHT22;73868;52.172;10.668;2024-02-28T11:20:48;7.00;78.10
83841;DHT22;73868;52.172;10.668;2024-02-28T11:23:17;7.10;77.80
83841;DHT22;73868;52.172;10.668;2024-02-28T11:25:43;7.20;78.00
83841;DHT22;73868;52.172;10.668;2024-02-28T11:28:09;7.20;77.90
83841;DHT22;73868;52.172;10.668;2024-02-28T11:30:35;7.10;78.00
83841;DHT22;73868;52.172;10.668;2024-02-28T11:33:01;7.00;79.10
83841;DHT22;73868;52.172;10.668;2024-02-28T11:35:28;7.10;78.90
83841;DHT22;73868;52.172;10.668;2024-02-28T11:37:57;7.30;78.00
83841;DHT22;73868;52.172;10.668;2024-02-28T11:40:26;7.30;78.20
83841;DHT22;73868;52.172;10.668;2024-02-28T11:42:55;7.40;77.80
83841;DHT22;73868;52.172;10.668;2024-02-28T11:45:20;7.30;77.90
83841;DHT22;73868;52.172;10.668;2024-02-28T11:47:46;7.40;77.40
83841;DHT22;73868;52.172;10.668;2024-02-28T11:50:13;7.30;77.70
83841;DHT22;73868;52.172;10.668;2024-02-28T11:52:40;7.50;77.70
83841;DHT22;73868;52.172;10.668;2024-02-28T11:55:07;7.60;77.00
83841;DHT22;73868;52.172;10.668;2024-02-28T11:57:32;7.80;76.90
83841;DHT22;73868;52.172;10.668;2024-02-28T12:00:17;7.70;76.00
83841;DHT22;73868;52.172;10.668;2024-02-28T12:02:43;7.80;75.30
83841;DHT22;73868;52.172;10.668;2024-02-28T12:05:08;7.60;75.70
83841;DHT22;73868;52.172;10.668;2024-02-28T12:07:36;7.70;76.70
83841;DHT22;73868;52.172;10.668;2024-02-28T12:10:02;7.80;77.00
83841;DHT22;73868;52.172;10.668;2024-02-28T12:12:28;7.80;76.00
83841;DHT22;73868;52.172;10.668;2024-02-28T12:14:58;7.70;76.20
83841;DHT22;73868;52.172;10.668;2024-02-28T12:17:25;7.70;75.50
83841;DHT22;73868;52.172;10.668;2024-02-28T12:19:51;7.70;76.70
83841;DHT22;73868;52.172;10.668;2024-02-28T12:22:17;7.60;75.80
83841;DHT22;73868;52.172;10.668;2024-02-28T12:24:43;7.70;77.00
83841;DHT22;73868;52.172;10.668;2024-02-28T12:27:09;7.80;76.10
83841;DHT22;73868;52.172;10.668;2024-02-28T12:29:34;7.80;76.30
83841;DHT22;73868;52.172;10.668;2024-02-28T12:32:00;7.70;76.40
83841;DHT22;73868;52.172;10.668;2024-02-28T12:34:26;7.70;76.60
83841;DHT22;73868;52.172;10.668;2024-02-28T12:36:52;7.90;77.10
83841;DHT22;73868;52.172;10.668;2024-02-28T12:39:18;8.00;76.70
83841;DHT22;73868;52.172;10.668;2024-02-28T12:41:44;8.10;75.90
83841;DHT22;73868;52.172;10.668;2024-02-28T12:44:09;8.10;74.70
83841;DHT22;73868;52.172;10.668;2024-02-28T12:46:36;8.10;74.70
83841;DHT22;73868;52.172;10.668;2024-02-28T12:49:02;8.10;74.00
83841;DHT22;73868;52.172;10.668;2024-02-28T12:51:45;8.20;74.60
83841;DHT22;73868;52.172;10.668;2024-02-28T12:54:12;8.30;74.10
83841;DHT22;73868;52.172;10.668;2024-02-28T12:56:40;8.30;74.40
83841;DHT22;73868;52.172;10.668;2024-02-28T12:59:08;8.20;74.90
83841;DHT22;73868;52.172;10.668;2024-02-28T13:01:34;8.40;74.50
83841;DHT22;73868;52.172;10.668;2024-02-28T13:04:00;8.40;73.30
83841;DHT22;73868;52.172;10.668;2024-02-28T13:06:26;8.40;73.00
83841;DHT22;73868;52.172;10.668;2024-02-28T13:08:53;8.60;72.30
83841;DHT22;73868;52.172;10.668;2024-02-28T13:11:20;8.70;72.50
83841;DHT22;73868;52.172;10.668;2024-02-28T13:13:47;8.60;72.20
83841;DHT22;73868;52.172;10.668;2024-02-28T13:16:13;8.50;72.40
83841;DHT22;73868;52.172;10.668;2024-02-28T13:18:39;8.50;73.00
83841;DHT22;73868;52.172;10.668;2024-02-28T13:21:05;8.60;73.30
83841;DHT22;73868;52.172;10.668;2024-02-28T13:23:31;8.40;73.30
83841;DHT22;73868;52.172;10.668;2024-02-28T13:25:57;8.40;73.70
83841;DHT22;73868;52.172;10.668;2024-02-28T13:28:23;8.40;72.20
83841;DHT22;73868;52.172;10.668;2024-02-28T13:30:59;8.20;72.80
83841;DHT22;73868;52.172;10.668;2024-02-28T13:33:25;8.20;73.50
83841;DHT22;73868;52.172;10.668;2024-02-28T13:35:52;8.20;74.40
83841;DHT22;73868;52.172;10.668;2024-02-28T13:38:18;8.20;73.70
83841;DHT22;73868;52.172;10.668;2024-02-28T13:40:50;8.10;74.20
83841;DHT22;73868;52.172;10.668;2024-02-28T13:43:16;7.80;74.70
83841;DHT22;73868;52.172;10.668;2024-02-28T13:45:47;7.90;75.60
83841;DHT22;73868;52.172;10.668;2024-02-28T13:50:52;7.90;74.90
83841;DHT22;73868;52.172;10.668;2024-02-28T13:53:18;7.90;74.40
83841;DHT22;73868;52.172;10.668;2024-02-28T13:55:46;7.80;74.90
83841;DHT22;73868;52.172;10.668;2024-02-28T13:58:13;7.80;75.40
83841;DHT22;73868;52.172;10.668;2024-02-28T14:00:39;7.90;76.30
83841;DHT22;73868;52.172;10.668;2024-02-28T14:03:05;7.90;74.80
83841;DHT22;73868;52.172;10.668;2024-02-28T14:05:39;8.00;75.10
83841;DHT22;73868;52.172;10.668;2024-02-28T14:08:05;7.80;74.30
83841;DHT22;73868;52.172;10.668;2024-02-28T14:10:33;7.70;75.10
83841;DHT22;73868;52.172;10.668;2024-02-28T14:12:59;7.80;75.90
83841;DHT22;73868;52.172;10.668;2024-02-28T14:15:25;7.80;74.60
83841;DHT22;73868;52.172;10.668;2024-02-28T14:17:51;7.90;75.20
83841;DHT22;73868;52.172;10.668;2024-02-28T14:20:17;7.90;74.70
83841;DHT22;73868;52.172;10.668;2024-02-28T14:22:43;7.90;73.70
83841;DHT22;73868;52.172;10.668;2024-02-28T14:25:13;8.00;74.30
83841;DHT22;73868;52.172;10.668;2024-02-28T14:27:39;8.00;74.00
83841;DHT22;73868;52.172;10.668;2024-02-28T14:30:07;8.00;74.30
83841;DHT22;73868;52.172;10.668;2024-02-28T14:32:35;8.00;73.80
83841;DHT22;73868;52.172;10.668;2024-02-28T14:35:05;8.10;75.10
83841;DHT22;73868;52.172;10.668;2024-02-28T14:37:35;7.90;74.60
83841;DHT22;73868;52.172;10.668;2024-02-28T14:40:02;7.90;74.80
83841;DHT22;73868;52.172;10.668;2024-02-28T14:42:32;8.00;75.30
83841;DHT22;73868;52.172;10.668;2024-02-28T14:44:57;7.80;74.50
83841;DHT22;73868;52.172;10.668;2024-02-28T14:47:23;7.70;75.20
83841;DHT22;73868;52.172;10.668;2024-02-28T14:49:48;7.70;74.80
83841;DHT22;73868;52.172;10.668;2024-02-28T14:52:15;7.70;74.60
83841;DHT22;73868;52.172;10.668;2024-02-28T14:54:40;7.70;75.10
83841;DHT22;73868;52.172;10.668;2024-02-28T14:57:06;7.70;75.70
83841;DHT22;73868;52.172;10.668;2024-02-28T14:59:32;7.60;76.00
83841;DHT22;73868;52.172;10.668;2024-02-28T15:01:58;7.60;75.80
83841;DHT22;73868;52.172;10.668;2024-02-28T15:04:24;7.60;75.70
83841;DHT22;73868;52.172;10.668;2024-02-28T15:06:50;7.60;75.70
83841;DHT22;73868;52.172;10.668;2024-02-28T15:09:18;7.60;75.70
83841;DHT22;73868;52.172;10.668;2024-02-28T15:11:47;7.50;75.50
83841;DHT22;73868;52.172;10.668;2024-02-28T15:14:13;7.40;74.80
83841;DHT22;73868;52.172;10.668;2024-02-28T15:16:38;7.40;75.30
83841;DHT22;73868;52.172;10.668;2024-02-28T15:19:04;7.40;75.70
83841;DHT22;73868;52.172;10.668;2024-02-28T15:21:30;7.30;75.70
83841;DHT22;73868;52.172;10.668;2024-02-28T15:23:55;7.30;76.00
83841;DHT22;73868;52.172;10.668;2024-02-28T15:26:21;7.20;76.40
83841;DHT22;73868;52.172;10.668;2024-02-28T15:28:46;7.20;76.90